sensor_id;sensor_type;location;lat;lon;timestamp;temperature;humidity
23073;DHT22;34865;51.046;3.732;2023-02-01T00:00:55;9.30;99.90
23073;DHT22;34865;51.046;3.732;2023-02-01T00:03:21;9.20;99.90
23073;DHT22;34865;51.046;3.732;2023-02-01T00:05:57;9.10;99.90
23073;DHT22;34865;51.046;3.732;2023-02-01T00:08:23;9.20;99.90
23073;DHT22;34865;51.046;3.732;2023-02-01T00:10:56;9.10;99.90
23073;DHT22;34865;51.046;3.732;2023-02-01T00:13:22;9.20;99.90
23073;DHT22;34865;51.046;3.732;2023-02-01T00:15:48;9.10;99.90
23073;DHT22;34865;51.046;3.732;2023-02-01T00:18:13;9.00;99.90
23073;DHT22;34865;51.046;3.732;2023-02-01T00:20:39;9.00;99.90
23073;DHT22;34865;51.046;3.732;2023-02-01T00:23:10;9.00;99.90
23073;DHT22;34865;51.046;3.732;2023-02-01T00:25:35;8.70;99.90
23073;DHT22;34865;51.046;3.732;2023-02-01T00:28:01;8.70;99.90
23073;DHT22;34865;51.046;3.732;2023-02-01T00:30:27;8.70;99.90
23073;DHT22;34865;51.046;3.732;2023-02-01T00:32:52;8.50;99.90
23073;DHT22;34865;51.046;3.732;2023-02-01T00:35:18;8.30;99.90
23073;DHT22;34865;51.046;3.732;2023-02-01T00:37:43;8.30;99.90
23073;DHT22;34865;51.046;3.732;2023-02-01T00:40:09;8.10;99.90
23073;DHT22;34865;51.046;3.732;2023-02-01T00:42:35;8.10;99.90
23073;DHT22;34865;51.046;3.732;2023-02-01T00:45:01;8.30;99.90
23073;DHT22;34865;51.046;3.732;2023-02-01T00:47:26;8.30;99.90
23073;DHT22;34865;51.046;3.732;2023-02-01T00:49:52;8.40;99.90
23073;DHT22;34865;51.046;3.732;2023-02-01T00:52:18;8.20;99.90
23073;DHT22;34865;51.046;3.732;2023-02-01T00:54:43;8.20;99.90
23073;DHT22;34865;51.046;3.732;2023-02-01T00:57:09;8.10;99.90
23073;DHT22;34865;51.046;3.732;2023-02-01T00:59:34;8.00;99.90
23073;DHT22;34865;51.046;3.732;2023-02-01T01:02:00;7.90;99.90
23073;DHT22;34865;51.046;3.732;2023-02-01T01:04:25;7.70;99.90
23073;DHT22;34865;51.046;3.732;2023-02-01T01:06:51;7.90;99.90
23073;DHT22;34865;51.046;3.732;2023-02-01T01:09:17;7.90;99.90
23073;DHT22;34865;51.046;3.732;2023-02-01T01:11:42;7.90;99.90
23073;DHT22;34865;51.046;3.732;2023-02-01T01:14:08;7.80;99.90
23073;DHT22;34865;51.046;3.732;2023-02-01T01:16:34;7.70;99.90
23073;DHT22;34865;51.046;3.732;2023-02-01T01:19:01;7.70;99.90
23073;DHT22;34865;51.046;3.732;2023-02-01T01:21:27;7.70;99.90
23073;DHT22;34865;51.046;3.732;2023-02-01T01:23:53;7.70;99.90
23073;DHT22;34865;51.046;3.732;2023-02-01T01:26:23;7.60;99.90
23073;DHT22;34865;51.046;3.732;2023-02-01T01:28:50;7.60;99.90
23073;DHT22;34865;51.046;3.732;2023-02-01T01:31:17;7.60;99.90
23073;DHT22;34865;51.046;3.732;2023-02-01T07:32:41;6.60;99.90
23073;DHT22;34865;51.046;3.732;2023-02-01T07:35:06;6.70;99.90
23073;DHT22;34865;51.046;3.732;2023-02-01T07:37:32;6.80;99.90
23073;DHT22;34865;51.046;3.732;2023-02-01T07:39:58;6.70;99.90
23073;DHT22;34865;51.046;3.732;2023-02-01T07:42:24;7.00;99.90
23073;DHT22;34865;51.046;3.732;2023-02-01T07:44:49;7.00;99.90
23073;DHT22;34865;51.046;3.732;2023-02-01T07:47:15;7.10;99.90
23073;DHT22;34865;51.046;3.732;2023-02-01T07:49:40;7.10;99.90
23073;DHT22;34865;51.046;3.732;2023-02-01T07:52:06;7.20;99.90
23073;DHT22;34865;51.046;3.732;2023-02-01T07:54:32;7.40;99.90
23073;DHT22;34865;51.046;3.732;2023-02-01T07:56:57;7.50;99.90
23073;DHT22;34865;51.046;3.732;2023-02-01T07:59:23;7.50;99.90
23073;DHT22;34865;51.046;3.732;2023-02-01T08:01:49;7.70;99.90
23073;DHT22;34865;51.046;3.732;2023-02-01T08:04:14;8.00;99.90
23073;DHT22;34865;51.046;3.732;2023-02-01T08:06:41;7.90;99.90
23073;DHT22;34865;51.046;3.732;2023-02-01T08:09:07;7.80;99.90
23073;DHT22;34865;51.046;3.732;2023-02-01T08:11:33;7.90;99.90
23073;DHT22;34865;51.046;3.732;2023-02-01T08:13:59;7.70;99.90
23073;DHT22;34865;51.046;3.732;2023-02-01T08:16:25;7.70;99.90
23073;DHT22;34865;51.046;3.732;2023-02-01T08:18:52;7.70;99.90
23073;DHT22;34865;51.046;3.732;2023-02-01T08:21:21;7.80;99.90
23073;DHT22;34865;51.046;3.732;2023-02-01T08:23:48;7.90;99.90
23073;DHT22;34865;51.046;3.732;2023-02-01T08:26:22;8.00;99.90
23073;DHT22;34865;51.046;3.732;2023-02-01T08:28:51;8.10;99.90
23073;DHT22;34865;51.046;3.732;2023-02-01T08:31:19;8.10;99.90
23073;DHT22;34865;51.046;3.732;2023-02-01T08:33:52;8.20;99.90
23073;DHT22;34865;51.046;3.732;2023-02-01T08:36:19;8.30;99.90
23073;DHT22;34865;51.046;3.732;2023-02-01T08:38:45;8.30;99.90
23073;DHT22;34865;51.046;3.732;2023-02-01T08:41:13;8.30;99.90
23073;DHT22;34865;51.046;3.732;2023-02-01T08:43:40;8.20;99.90
23073;DHT22;34865;51.046;3.732;2023-02-01T08:46:07;8.20;99.90
23073;DHT22;34865;51.046;3.732;2023-02-01T08:48:34;8.50;99.90
23073;DHT22;34865;51.046;3.732;2023-02-01T08:51:12;8.60;99.90
23073;DHT22;34865;51.046;3.732;2023-02-01T08:53:39;8.80;99.90
23073;DHT22;34865;51.046;3.732;2023-02-01T08:56:09;8.90;99.90
23073;DHT22;34865;51.046;3.732;2023-02-01T08:58:35;9.40;99.90
23073;DHT22;34865;51.046;3.732;2023-02-01T09:01:05;9.80;99.90
23073;DHT22;34865;51.046;3.732;2023-02-01T09:03:31;10.60;99.90
23073;DHT22;34865;51.046;3.732;2023-02-01T09:06:15;11.50;99.90
23073;DHT22;34865;51.046;3.732;2023-02-01T09:08:41;12.20;99.90
23073;DHT22;34865;51.046;3.732;2023-02-01T09:11:11;12.60;99.90
23073;DHT22;34865;51.046;3.732;2023-02-01T09:13:37;13.10;99.90
23073;DHT22;34865;51.046;3.732;2023-02-01T09:16:03;13.60;99.90
23073;DHT22;34865;51.046;3.732;2023-02-01T09:18:29;13.50;99.90
23073;DHT22;34865;51.046;3.732;2023-02-01T09:20:55;13.50;99.90
23073;DHT22;34865;51.046;3.732;2023-02-01T09:23:20;13.90;99.90
23073;DHT22;34865;51.046;3.732;2023-02-01T09:25:47;14.00;99.90
23073;DHT22;34865;51.046;3.732;2023-02-01T09:28:15;14.00;99.90
23073;DHT22;34865;51.046;3.732;2023-02-01T09:30:41;14.20;99.90
23073;DHT22;34865;51.046;3.732;2023-02-01T09:33:07;14.40;99.90
23073;DHT22;34865;51.046;3.732;2023-02-01T09:35:32;14.70;99.90
23073;DHT22;34865;51.046;3.732;2023-02-01T09:37:58;14.70;99.90
23073;DHT22;34865;51.046;3.732;2023-02-01T09:40:24;14.90;99.90
23073;DHT22;34865;51.046;3.732;2023-02-01T09:45:43;14.80;99.90
23073;DHT22;34865;51.046;3.732;2023-02-01T09:48:20;13.90;99.90
23073;DHT22;34865;51.046;3.732;2023-02-01T09:50:55;14.40;99.90
23073;DHT22;34865;51.046;3.732;2023-02-01T09:53:29;14.40;99.90
23073;DHT22;34865;51.046;3.732;2023-02-01T09:56:05;14.70;99.90
23073;DHT22;34865;51.046;3.732;2023-02-01T09:58:52;14.70;99.90
23073;DHT22;34865;51.046;3.732;2023-02-01T10:01:22;14.60;99.90
23073;DHT22;34865;51.046;3.732;2023-02-01T10:03:49;14.40;99.90
23073;DHT22;34865;51.046;3.732;2023-02-01T10:06:27;14.10;99.90
23073;DHT22;34865;51.046;3.732;2023-02-01T10:09:14;13.40;99.90
23073;DHT22;34865;51.046;3.732;2023-02-01T10:16:56;12.70;99.90
23073;DHT22;34865;51.046;3.732;2023-02-01T10:19:41;12.30;99.90
23073;DHT22;34865;51.046;3.732;2023-02-01T10:22:13;12.40;99.90
23073;DHT22;34865;51.046;3.732;2023-02-01T10:24:44;12.50;99.90
23073;DHT22;34865;51.046;3.732;2023-02-01T10:27:24;12.60;99.90
23073;DHT22;34865;51.046;3.732;2023-02-01T10:30:03;12.30;99.90
23073;DHT22;34865;51.046;3.732;2023-02-01T10:32:39;12.10;99.90
23073;DHT22;34865;51.046;3.732;2023-02-01T10:35:17;11.80;99.90
23073;DHT22;34865;51.046;3.732;2023-02-01T10:37:43;11.30;99.90
23073;DHT22;34865;51.046;3.732;2023-02-01T10:40:18;11.60;99.90
23073;DHT22;34865;51.046;3.732;2023-02-01T10:42:48;11.70;99.90
23073;DHT22;34865;51.046;3.732;2023-02-01T10:45:20;11.50;99.90
23073;DHT22;34865;51.046;3.732;2023-02-01T10:47:49;11.20;99.90
23073;DHT22;34865;51.046;3.732;2023-02-01T10:50:23;11.20;99.90
23073;DHT22;34865;51.046;3.732;2023-02-01T10:55:28;11.20;99.90
23073;DHT22;34865;51.046;3.732;2023-02-01T10:57:58;11.50;99.90
23073;DHT22;34865;51.046;3.732;2023-02-01T11:00:24;11.50;99.90
23073;DHT22;34865;51.046;3.732;2023-02-01T11:02:51;11.30;99.90
23073;DHT22;34865;51.046;3.732;2023-02-01T11:05:16;11.50;99.90
23073;DHT22;34865;51.046;3.732;2023-02-01T11:07:52;11.60;99.90
23073;DHT22;34865;51.046;3.732;2023-02-01T11:10:40;11.60;99.90
23073;DHT22;34865;51.046;3.732;2023-02-01T11:13:18;11.40;99.90
23073;DHT22;34865;51.046;3.732;2023-02-01T11:15:45;11.30;99.90
23073;DHT22;34865;51.046;3.732;2023-02-01T11:18:20;11.30;99.90
23073;DHT22;34865;51.046;3.732;2023-02-01T11:20:50;11.50;99.90
23073;DHT22;34865;51.046;3.732;2023-02-01T11:23:20;11.90;99.90
23073;DHT22;34865;51.046;3.732;2023-02-01T11:25:55;12.00;99.90
23073;DHT22;34865;51.046;3.732;2023-02-01T11:28:33;12.00;99.90
23073;DHT22;34865;51.046;3.732;2023-02-01T11:31:04;12.10;99.90
23073;DHT22;34865;51.046;3.732;2023-02-01T11:33:34;11.80;99.90
23073;DHT22;34865;51.046;3.732;2023-02-01T11:36:07;11.80;99.90
23073;DHT22;34865;51.046;3.732;2023-02-01T11:38:34;12.00;99.90
23073;DHT22;34865;51.046;3.732;2023-02-01T11:41:14;12.00;99.90
23073;DHT22;34865;51.046;3.732;2023-02-01T11:43:59;12.00;99.90
23073;DHT22;34865;51.046;3.732;2023-02-01T11:46:31;12.10;99.90
23073;DHT22;34865;51.046;3.732;2023-02-01T11:49:25;11.80;99.90
23073;DHT22;34865;51.046;3.732;2023-02-01T11:52:16;11.80;99.90
23073;DHT22;34865;51.046;3.732;2023-02-01T12:03:28;11.40;99.90
23073;DHT22;34865;51.046;3.732;2023-02-01T12:09:06;11.50;99.90
23073;DHT22;34865;51.046;3.732;2023-02-01T12:14:37;11.50;99.90
23073;DHT22;34865;51.046;3.732;2023-02-01T12:17:26;11.60;99.90
23073;DHT22;34865;51.046;3.732;2023-02-01T12:22:36;12.10;99.90
23073;DHT22;34865;51.046;3.732;2023-02-01T12:25:29;12.00;99.90
23073;DHT22;34865;51.046;3.732;2023-02-01T12:28:35;12.00;99.90
23073;DHT22;34865;51.046;3.732;2023-02-01T12:34:42;12.20;99.90
23073;DHT22;34865;51.046;3.732;2023-02-01T12:43:25;12.10;99.90
23073;DHT22;34865;51.046;3.732;2023-02-01T12:49:09;11.90;99.90
23073;DHT22;34865;51.046;3.732;2023-02-01T12:51:38;11.90;99.90
23073;DHT22;34865;51.046;3.732;2023-02-01T12:57:19;11.90;99.90
23073;DHT22;34865;51.046;3.732;2023-02-01T12:59:56;11.70;99.90
23073;DHT22;34865;51.046;3.732;2023-02-01T13:02:42;11.80;99.90
23073;DHT22;34865;51.046;3.732;2023-02-01T13:05:41;11.80;99.90
23073;DHT22;34865;51.046;3.732;2023-02-01T13:08:17;11.70;99.90
23073;DHT22;34865;51.046;3.732;2023-02-01T13:11:28;11.80;99.90
23073;DHT22;34865;51.046;3.732;2023-02-01T13:14:02;11.90;99.90
23073;DHT22;34865;51.046;3.732;2023-02-01T13:21:51;12.10;99.90
23073;DHT22;34865;51.046;3.732;2023-02-01T13:24:41;12.00;99.90
23073;DHT22;34865;51.046;3.732;2023-02-01T13:27:19;11.80;99.90
23073;DHT22;34865;51.046;3.732;2023-02-01T13:30:34;11.90;99.90
23073;DHT22;34865;51.046;3.732;2023-02-01T13:33:02;11.90;99.90
23073;DHT22;34865;51.046;3.732;2023-02-01T13:41:20;12.20;99.90
23073;DHT22;34865;51.046;3.732;2023-02-01T13:43:58;12.00;99.90
23073;DHT22;34865;51.046;3.732;2023-02-01T13:46:48;12.00;99.90
23073;DHT22;34865;51.046;3.732;2023-02-01T13:49:24;12.00;99.90
23073;DHT22;34865;51.046;3.732;2023-02-01T13:51:53;11.90;99.90
23073;DHT22;34865;51.046;3.732;2023-02-01T13:54:34;12.10;99.90
23073;DHT22;34865;51.046;3.732;2023-02-01T13:57:03;12.20;99.90
23073;DHT22;34865;51.046;3.732;2023-02-01T14:05:10;12.10;99.90
23073;DHT22;34865;51.046;3.732;2023-02-01T14:07:36;12.00;99.90
23073;DHT22;34865;51.046;3.732;2023-02-01T14:23:45;11.80;99.90
23073;DHT22;34865;51.046;3.732;2023-02-01T14:26:14;11.80;99.90
23073;DHT22;34865;51.046;3.732;2023-02-01T14:29:35;11.60;99.90
23073;DHT22;34865;51.046;3.732;2023-02-01T14:40:27;11.40;99.90
23073;DHT22;34865;51.046;3.732;2023-02-01T14:42:55;11.40;99.90
23073;DHT22;34865;51.046;3.732;2023-02-01T14:50:52;11.50;99.90
23073;DHT22;34865;51.046;3.732;2023-02-01T14:53:32;11.50;99.90
23073;DHT22;34865;51.046;3.732;2023-02-01T15:04:06;11.10;99.90
23073;DHT22;34865;51.046;3.732;2023-02-01T15:06:47;11.10;99.90
23073;DHT22;34865;51.046;3.732;2023-02-01T15:09:26;11.00;99.90
23073;DHT22;34865;51.046;3.732;2023-02-01T15:14:32;11.00;99.90
23073;DHT22;34865;51.046;3.732;2023-02-01T15:16:58;11.00;99.90
23073;DHT22;34865;51.046;3.732;2023-02-01T15:19:26;11.00;99.90
23073;DHT22;34865;51.046;3.732;2023-02-01T15:21:55;10.80;99.90
23073;DHT22;34865;51.046;3.732;2023-02-01T15:24:26;10.80;99.90
23073;DHT22;34865;51.046;3.732;2023-02-01T15:26:53;10.80;99.90
23073;DHT22;34865;51.046;3.732;2023-02-01T15:29:21;10.90;99.90
23073;DHT22;34865;51.046;3.732;2023-02-01T15:31:49;10.90;99.90
23073;DHT22;34865;51.046;3.732;2023-02-01T15:34:16;11.00;99.90
23073;DHT22;34865;51.046;3.732;2023-02-01T15:36:43;10.80;99.90
23073;DHT22;34865;51.046;3.732;2023-02-01T15:39:21;10.80;99.90
23073;DHT22;34865;51.046;3.732;2023-02-01T15:41:58;10.90;99.90
23073;DHT22;34865;51.046;3.732;2023-02-01T15:44:39;10.80;99.90
23073;DHT22;34865;51.046;3.732;2023-02-01T15:47:16;10.70;99.90
23073;DHT22;34865;51.046;3.732;2023-02-01T15:49:44;10.60;99.90
23073;DHT22;34865;51.046;3.732;2023-02-01T15:52:27;10.80;99.90
23073;DHT22;34865;51.046;3.732;2023-02-01T15:54:58;10.80;99.90
23073;DHT22;34865;51.046;3.732;2023-02-01T15:57:33;10.80;99.90
23073;DHT22;34865;51.046;3.732;2023-02-01T16:00:02;10.70;99.90
23073;DHT22;34865;51.046;3.732;2023-02-01T16:02:34;10.50;99.90
23073;DHT22;34865;51.046;3.732;2023-02-01T16:05:02;10.50;99.90
23073;DHT22;34865;51.046;3.732;2023-02-01T16:07:30;10.50;99.90
23073;DHT22;34865;51.046;3.732;2023-02-01T16:10:02;10.70;99.90
23073;DHT22;34865;51.046;3.732;2023-02-01T16:15:09;10.70;99.90
23073;DHT22;34865;51.046;3.732;2023-02-01T16:17:34;10.60;99.90
23073;DHT22;34865;51.046;3.732;2023-02-01T16:20:00;10.50;99.90
23073;DHT22;34865;51.046;3.732;2023-02-01T16:22:26;10.50;99.90
23073;DHT22;34865;51.046;3.732;2023-02-01T16:24:51;10.60;99.90
23073;DHT22;34865;51.046;3.732;2023-02-01T16:27:17;10.70;99.90
23073;DHT22;34865;51.046;3.732;2023-02-01T16:29:42;10.70;99.90
23073;DHT22;34865;51.046;3.732;2023-02-01T16:32:16;10.50;99.90
23073;DHT22;34865;51.046;3.732;2023-02-01T16:34:42;10.50;99.90
23073;DHT22;34865;51.046;3.732;2023-02-01T16:37:13;10.40;99.90
23073;DHT22;34865;51.046;3.732;2023-02-01T16:39:38;10.40;99.90
23073;DHT22;34865;51.046;3.732;2023-02-01T16:42:13;10.40;99.90
23073;DHT22;34865;51.046;3.732;2023-02-01T16:44:43;10.50;99.90
23073;DHT22;34865;51.046;3.732;2023-02-01T16:47:21;10.40;99.90
23073;DHT22;34865;51.046;3.732;2023-02-01T16:50:23;10.40;99.90
23073;DHT22;34865;51.046;3.732;2023-02-01T16:53:05;10.50;99.90
23073;DHT22;34865;51.046;3.732;2023-02-01T16:55:36;10.70;99.90
23073;DHT22;34865;51.046;3.732;2023-02-01T16:58:10;10.60;99.90
23073;DHT22;34865;51.046;3.732;2023-02-01T17:01:03;10.50;99.90
23073;DHT22;34865;51.046;3.732;2023-02-01T17:03:37;10.50;99.90
23073;DHT22;34865;51.046;3.732;2023-02-01T17:06:08;10.50;99.90
23073;DHT22;34865;51.046;3.732;2023-02-01T17:08:43;10.50;99.90
23073;DHT22;34865;51.046;3.732;2023-02-01T17:11:16;10.50;99.90
23073;DHT22;34865;51.046;3.732;2023-02-01T17:13:44;10.50;99.90
23073;DHT22;34865;51.046;3.732;2023-02-01T17:16:31;10.60;99.90
23073;DHT22;34865;51.046;3.732;2023-02-01T17:19:05;10.70;99.90
23073;DHT22;34865;51.046;3.732;2023-02-01T17:21:45;10.70;99.90
23073;DHT22;34865;51.046;3.732;2023-02-01T17:24:16;10.50;99.90
23073;DHT22;34865;51.046;3.732;2023-02-01T17:26:43;10.40;99.90
23073;DHT22;34865;51.046;3.732;2023-02-01T17:29:18;10.60;99.90
23073;DHT22;34865;51.046;3.732;2023-02-01T17:31:53;10.70;99.90
23073;DHT22;34865;51.046;3.732;2023-02-01T17:34:23;10.70;99.90
23073;DHT22;34865;51.046;3.732;2023-02-01T17:36:48;10.70;99.90
23073;DHT22;34865;51.046;3.732;2023-02-01T17:39:17;10.50;99.90
23073;DHT22;34865;51.046;3.732;2023-02-01T17:42:08;10.60;99.90
23073;DHT22;34865;51.046;3.732;2023-02-01T17:44:39;10.40;99.90
23073;DHT22;34865;51.046;3.732;2023-02-01T17:47:05;10.50;99.90
23073;DHT22;34865;51.046;3.732;2023-02-01T17:49:42;10.50;99.90
23073;DHT22;34865;51.046;3.732;2023-02-01T17:52:29;10.40;99.90
23073;DHT22;34865;51.046;3.732;2023-02-01T17:55:23;10.20;99.90
23073;DHT22;34865;51.046;3.732;2023-02-01T17:57:51;10.40;99.90
23073;DHT22;34865;51.046;3.732;2023-02-01T18:00:40;10.30;99.90
23073;DHT22;34865;51.046;3.732;2023-02-01T18:03:09;10.50;99.90
23073;DHT22;34865;51.046;3.732;2023-02-01T18:05:43;10.60;99.90
23073;DHT22;34865;51.046;3.732;2023-02-01T18:08:16;10.80;99.90
23073;DHT22;34865;51.046;3.732;2023-02-01T18:10:43;10.80;99.90
23073;DHT22;34865;51.046;3.732;2023-02-01T18:13:12;10.50;99.90
23073;DHT22;34865;51.046;3.732;2023-02-01T18:15:43;10.40;99.90
23073;DHT22;34865;51.046;3.732;2023-02-01T18:18:10;10.50;99.90
23073;DHT22;34865;51.046;3.732;2023-02-01T18:20:38;10.50;99.90
23073;DHT22;34865;51.046;3.732;2023-02-01T18:23:16;10.60;99.90
23073;DHT22;34865;51.046;3.732;2023-02-01T18:25:42;10.60;99.90
23073;DHT22;34865;51.046;3.732;2023-02-01T18:28:09;10.60;99.90
23073;DHT22;34865;51.046;3.732;2023-02-01T18:30:42;10.40;99.90
23073;DHT22;34865;51.046;3.732;2023-02-01T18:33:13;10.30;99.90
23073;DHT22;34865;51.046;3.732;2023-02-01T18:35:39;10.30;99.90
23073;DHT22;34865;51.046;3.732;2023-02-01T18:38:06;10.50;99.90
23073;DHT22;34865;51.046;3.732;2023-02-01T18:40:47;10.50;99.90
23073;DHT22;34865;51.046;3.732;2023-02-01T18:43:57;10.50;99.90
23073;DHT22;34865;51.046;3.732;2023-02-01T18:46:23;10.50;99.90
23073;DHT22;34865;51.046;3.732;2023-02-01T18:48:50;10.50;99.90
23073;DHT22;34865;51.046;3.732;2023-02-01T18:51:18;10.40;99.90
23073;DHT22;34865;51.046;3.732;2023-02-01T18:53:49;10.60;99.90
23073;DHT22;34865;51.046;3.732;2023-02-01T18:56:17;10.60;99.90
23073;DHT22;34865;51.046;3.732;2023-02-01T18:58:49;10.40;99.90
23073;DHT22;34865;51.046;3.732;2023-02-01T19:01:24;10.60;99.90
23073;DHT22;34865;51.046;3.732;2023-02-01T19:03:50;10.50;99.90
23073;DHT22;34865;51.046;3.732;2023-02-01T19:06:16;10.40;99.90
23073;DHT22;34865;51.046;3.732;2023-02-01T19:08:48;10.60;99.90
23073;DHT22;34865;51.046;3.732;2023-02-01T19:11:23;10.50;99.90
23073;DHT22;34865;51.046;3.732;2023-02-01T19:13:50;10.60;99.90
23073;DHT22;34865;51.046;3.732;2023-02-01T19:16:21;10.60;99.90
23073;DHT22;34865;51.046;3.732;2023-02-01T19:18:51;10.70;99.90
23073;DHT22;34865;51.046;3.732;2023-02-01T19:21:17;10.50;99.90
23073;DHT22;34865;51.046;3.732;2023-02-01T19:23:43;10.40;99.90
23073;DHT22;34865;51.046;3.732;2023-02-01T19:26:13;10.30;99.90
23073;DHT22;34865;51.046;3.732;2023-02-01T19:28:42;10.50;99.90
23073;DHT22;34865;51.046;3.732;2023-02-01T19:31:14;10.50;99.90
23073;DHT22;34865;51.046;3.732;2023-02-01T19:33:44;10.40;99.90
23073;DHT22;34865;51.046;3.732;2023-02-01T19:36:18;10.40;99.90
23073;DHT22;34865;51.046;3.732;2023-02-01T19:38:52;10.50;99.90
23073;DHT22;34865;51.046;3.732;2023-02-01T19:41:34;10.50;99.90
23073;DHT22;34865;51.046;3.732;2023-02-01T19:44:00;10.50;99.90
23073;DHT22;34865;51.046;3.732;2023-02-01T19:46:34;10.60;99.90
23073;DHT22;34865;51.046;3.732;2023-02-01T19:49:06;10.50;99.90
23073;DHT22;34865;51.046;3.732;2023-02-01T19:51:37;10.60;99.90
23073;DHT22;34865;51.046;3.732;2023-02-01T19:54:11;10.60;99.90
23073;DHT22;34865;51.046;3.732;2023-02-01T19:56:37;10.50;99.90
23073;DHT22;34865;51.046;3.732;2023-02-01T19:59:17;10.50;99.90
23073;DHT22;34865;51.046;3.732;2023-02-01T20:01:56;10.50;99.90
23073;DHT22;34865;51.046;3.732;2023-02-01T20:04:32;10.40;99.90
23073;DHT22;34865;51.046;3.732;2023-02-01T20:06:58;10.40;99.90
23073;DHT22;34865;51.046;3.732;2023-02-01T20:09:26;10.40;99.90
23073;DHT22;34865;51.046;3.732;2023-02-01T20:11:53;10.50;99.90
23073;DHT22;34865;51.046;3.732;2023-02-01T20:14:23;10.50;99.90
23073;DHT22;34865;51.046;3.732;2023-02-01T20:16:51;10.50;99.90
23073;DHT22;34865;51.046;3.732;2023-02-01T20:19:20;10.50;99.90
23073;DHT22;34865;51.046;3.732;2023-02-01T20:21:53;10.50;99.90
23073;DHT22;34865;51.046;3.732;2023-02-01T20:24:25;10.40;99.90
23073;DHT22;34865;51.046;3.732;2023-02-01T20:26:51;10.30;99.90
23073;DHT22;34865;51.046;3.732;2023-02-01T20:29:17;10.30;99.90
23073;DHT22;34865;51.046;3.732;2023-02-01T20:31:44;10.40;99.90
23073;DHT22;34865;51.046;3.732;2023-02-01T20:34:10;10.30;99.90
23073;DHT22;34865;51.046;3.732;2023-02-01T20:36:36;10.40;99.90
23073;DHT22;34865;51.046;3.732;2023-02-01T20:39:03;10.40;99.90
23073;DHT22;34865;51.046;3.732;2023-02-01T20:41:28;10.20;99.90
23073;DHT22;34865;51.046;3.732;2023-02-01T20:43:55;10.20;99.90
23073;DHT22;34865;51.046;3.732;2023-02-01T20:46:22;10.10;99.90
23073;DHT22;34865;51.046;3.732;2023-02-01T20:48:49;10.10;99.90
23073;DHT22;34865;51.046;3.732;2023-02-01T20:51:18;10.20;99.90
23073;DHT22;34865;51.046;3.732;2023-02-01T20:53:49;10.40;99.90
23073;DHT22;34865;51.046;3.732;2023-02-01T20:56:17;10.20;99.90
23073;DHT22;34865;51.046;3.732;2023-02-01T20:58:43;10.20;99.90
23073;DHT22;34865;51.046;3.732;2023-02-01T21:01:09;10.10;99.90
23073;DHT22;34865;51.046;3.732;2023-02-01T21:03:36;10.00;99.90
23073;DHT22;34865;51.046;3.732;2023-02-01T21:06:06;10.10;99.90
23073;DHT22;34865;51.046;3.732;2023-02-01T21:08:33;10.10;99.90
23073;DHT22;34865;51.046;3.732;2023-02-01T21:11:08;10.00;99.90
23073;DHT22;34865;51.046;3.732;2023-02-01T21:13:38;10.00;99.90
23073;DHT22;34865;51.046;3.732;2023-02-01T21:16:09;10.00;99.90
23073;DHT22;34865;51.046;3.732;2023-02-01T21:18:35;10.10;99.90
23073;DHT22;34865;51.046;3.732;2023-02-01T21:21:05;10.30;99.90
23073;DHT22;34865;51.046;3.732;2023-02-01T21:23:31;10.30;99.90
23073;DHT22;34865;51.046;3.732;2023-02-01T21:26:01;10.30;99.90
23073;DHT22;34865;51.046;3.732;2023-02-01T21:28:27;10.30;99.90
23073;DHT22;34865;51.046;3.732;2023-02-01T21:30:52;10.30;99.90
23073;DHT22;34865;51.046;3.732;2023-02-01T21:33:18;10.40;99.90
23073;DHT22;34865;51.046;3.732;2023-02-01T21:35:44;10.40;99.90
23073;DHT22;34865;51.046;3.732;2023-02-01T21:38:09;10.30;99.90
23073;DHT22;34865;51.046;3.732;2023-02-01T21:40:35;10.30;99.90
23073;DHT22;34865;51.046;3.732;2023-02-01T21:43:01;10.30;99.90
23073;DHT22;34865;51.046;3.732;2023-02-01T21:45:27;10.20;99.90
23073;DHT22;34865;51.046;3.732;2023-02-01T21:47:52;10.30;99.90
23073;DHT22;34865;51.046;3.732;2023-02-01T21:50:19;10.30;99.90
23073;DHT22;34865;51.046;3.732;2023-02-01T21:52:45;10.40;99.90
23073;DHT22;34865;51.046;3.732;2023-02-01T21:55:11;10.20;99.90
23073;DHT22;34865;51.046;3.732;2023-02-01T21:57:38;10.30;99.90
23073;DHT22;34865;51.046;3.732;2023-02-01T22:00:05;10.30;99.90
23073;DHT22;34865;51.046;3.732;2023-02-01T22:02:34;10.30;99.90
23073;DHT22;34865;51.046;3.732;2023-02-01T22:05:01;10.30;99.90
23073;DHT22;34865;51.046;3.732;2023-02-01T22:07:28;10.30;99.90
23073;DHT22;34865;51.046;3.732;2023-02-01T22:09:54;10.50;99.90
23073;DHT22;34865;51.046;3.732;2023-02-01T22:12:19;10.60;99.90
23073;DHT22;34865;51.046;3.732;2023-02-01T22:14:45;10.50;99.90
23073;DHT22;34865;51.046;3.732;2023-02-01T22:17:14;10.60;99.90
23073;DHT22;34865;51.046;3.732;2023-02-01T22:19:40;10.50;99.90
23073;DHT22;34865;51.046;3.732;2023-02-01T22:22:06;10.40;99.90
23073;DHT22;34865;51.046;3.732;2023-02-01T22:24:32;10.40;99.90
23073;DHT22;34865;51.046;3.732;2023-02-01T22:27:00;10.40;99.90
23073;DHT22;34865;51.046;3.732;2023-02-01T22:29:26;10.40;99.90
23073;DHT22;34865;51.046;3.732;2023-02-01T22:31:52;10.30;99.90
23073;DHT22;34865;51.046;3.732;2023-02-01T22:34:17;10.30;99.90
23073;DHT22;34865;51.046;3.732;2023-02-01T22:36:44;10.30;99.90
23073;DHT22;34865;51.046;3.732;2023-02-01T22:39:10;10.30;99.90
23073;DHT22;34865;51.046;3.732;2023-02-01T22:41:36;10.50;99.90
23073;DHT22;34865;51.046;3.732;2023-02-01T22:44:02;10.30;99.90
23073;DHT22;34865;51.046;3.732;2023-02-01T22:46:28;10.30;99.90
23073;DHT22;34865;51.046;3.732;2023-02-01T22:48:56;10.40;99.90
23073;DHT22;34865;51.046;3.732;2023-02-01T22:51:25;10.40;99.90
23073;DHT22;34865;51.046;3.732;2023-02-01T22:53:51;10.20;99.90
23073;DHT22;34865;51.046;3.732;2023-02-01T22:56:28;10.30;99.90
23073;DHT22;34865;51.046;3.732;2023-02-01T22:59:00;10.10;99.90
23073;DHT22;34865;51.046;3.732;2023-02-01T23:01:28;10.10;99.90
23073;DHT22;34865;51.046;3.732;2023-02-01T23:03:59;10.20;99.90
23073;DHT22;34865;51.046;3.732;2023-02-01T23:06:25;10.20;99.90
23073;DHT22;34865;51.046;3.732;2023-02-01T23:08:56;10.30;99.90
23073;DHT22;34865;51.046;3.732;2023-02-01T23:11:23;10.30;99.90
23073;DHT22;34865;51.046;3.732;2023-02-01T23:13:49;10.20;99.90
23073;DHT22;34865;51.046;3.732;2023-02-01T23:16:15;10.40;99.90
23073;DHT22;34865;51.046;3.732;2023-02-01T23:18:41;10.30;99.90
23073;DHT22;34865;51.046;3.732;2023-02-01T23:21:12;10.30;99.90
23073;DHT22;34865;51.046;3.732;2023-02-01T23:23:38;10.20;99.90
23073;DHT22;34865;51.046;3.732;2023-02-01T23:26:04;10.30;99.90
23073;DHT22;34865;51.046;3.732;2023-02-01T23:28:31;10.10;99.90
23073;DHT22;34865;51.046;3.732;2023-02-01T23:30:57;10.10;99.90
23073;DHT22;34865;51.046;3.732;2023-02-01T23:33:24;10.10;99.90
23073;DHT22;34865;51.046;3.732;2023-02-01T23:36:00;10.10;99.90
23073;DHT22;34865;51.046;3.732;2023-02-01T23:38:27;10.20;99.90